createdAt,value
2019-02-24T00:01:25.109Z,2.53
2019-02-24T00:03:54.780Z,2.70
2019-02-24T00:06:24.040Z,3.70
2019-02-24T00:08:53.209Z,3.10
2019-02-24T00:11:22.588Z,3.13
2019-02-24T00:13:51.823Z,3.00
2019-02-24T00:16:21.021Z,2.97
2019-02-24T00:18:50.235Z,2.83
2019-02-24T00:21:19.524Z,3.13
2019-02-24T00:23:48.772Z,2.63
2019-02-24T00:26:18.031Z,2.20
2019-02-24T00:28:47.259Z,2.10
2019-02-24T00:31:16.490Z,3.73
2019-02-24T00:33:45.684Z,1.83
2019-02-24T00:36:14.846Z,1.90
2019-02-24T00:38:44.548Z,2.10
2019-02-24T00:41:13.933Z,1.87
2019-02-24T00:43:43.178Z,1.90
2019-02-24T00:46:12.369Z,1.90
2019-02-24T00:48:41.700Z,1.80
2019-02-24T00:51:10.942Z,1.70
2019-02-24T00:53:40.181Z,1.70
2019-02-24T00:56:09.333Z,1.67
2019-02-24T00:58:38.518Z,1.83
2019-02-24T01:01:07.646Z,2.03
2019-02-24T01:03:36.812Z,1.67
2019-02-24T01:06:06.034Z,2.20
2019-02-24T01:08:35.222Z,1.47
2019-02-24T01:11:04.474Z,1.93
2019-02-24T01:13:33.654Z,1.97
2019-02-24T01:16:02.936Z,1.93
2019-02-24T01:18:32.232Z,1.20
2019-02-24T01:21:01.463Z,1.60
2019-02-24T01:23:30.713Z,2.07
2019-02-24T01:25:59.880Z,1.60
2019-02-24T01:28:29.069Z,2.03
2019-02-24T01:30:58.301Z,1.50
2019-02-24T01:33:27.478Z,1.60
2019-02-24T01:35:56.711Z,1.83
2019-02-24T01:38:25.953Z,2.07
2019-02-24T01:40:55.182Z,1.80
2019-02-24T01:43:24.413Z,1.50
2019-02-24T01:45:53.640Z,1.60
2019-02-24T01:48:22.864Z,1.50
2019-02-24T01:50:51.986Z,2.00
2019-02-24T01:53:21.143Z,1.93
2019-02-24T01:55:50.369Z,1.60
2019-02-24T01:58:19.616Z,2.27
2019-02-24T02:00:48.767Z,1.93
2019-02-24T02:03:18.014Z,1.50
2019-02-24T02:05:47.166Z,1.37
2019-02-24T02:08:16.337Z,1.53
2019-02-24T02:10:45.508Z,1.90
2019-02-24T02:13:14.671Z,1.80
2019-02-24T02:15:43.925Z,1.80
2019-02-24T02:18:13.073Z,2.60
2019-02-24T02:20:42.308Z,1.50
2019-02-24T02:23:11.582Z,1.67
2019-02-24T02:25:40.803Z,1.77
2019-02-24T02:28:09.966Z,1.50
2019-02-24T02:30:39.213Z,1.63
2019-02-24T02:33:08.533Z,1.37
2019-02-24T02:35:37.778Z,1.90
2019-02-24T02:38:06.933Z,1.40
2019-02-24T02:40:36.082Z,1.37
2019-02-24T02:43:24.448Z,1.57
2019-02-24T02:45:53.737Z,1.80
2019-02-24T02:48:23.054Z,1.40
2019-02-24T02:50:52.409Z,1.20
2019-02-24T02:53:21.761Z,1.80
2019-02-24T02:55:51.033Z,1.43
2019-02-24T02:58:20.540Z,1.70
2019-02-24T03:00:49.806Z,1.17
2019-02-24T03:03:19.101Z,1.40
2019-02-24T03:06:00.087Z,1.90
2019-02-24T03:08:48.339Z,1.60
2019-02-24T03:11:17.721Z,1.40
2019-02-24T03:13:47.015Z,1.90
2019-02-24T03:16:20.190Z,1.43
2019-02-24T03:18:49.491Z,1.47
2019-02-24T03:21:18.970Z,1.53
2019-02-24T03:23:48.277Z,1.60
2019-02-24T03:26:17.561Z,1.90
2019-02-24T03:28:46.843Z,1.37
2019-02-24T03:31:16.126Z,1.70
2019-02-24T03:33:45.437Z,1.60
2019-02-24T03:36:14.733Z,1.53
2019-02-24T03:39:03.119Z,1.90
2019-02-24T03:41:32.853Z,1.67
2019-02-24T03:44:02.144Z,1.50
2019-02-24T03:46:31.409Z,1.80
2019-02-24T03:49:00.703Z,1.40
2019-02-24T03:51:30.014Z,1.57
2019-02-24T03:53:59.635Z,1.20
2019-02-24T03:56:28.892Z,1.20
2019-02-24T03:58:58.196Z,1.67
2019-02-24T04:01:27.469Z,1.60
2019-02-24T04:04:15.827Z,1.90
2019-02-24T04:06:45.099Z,1.63
2019-02-24T04:09:14.381Z,1.50
2019-02-24T04:11:43.659Z,1.53
2019-02-24T04:14:12.973Z,1.30
2019-02-24T04:16:42.251Z,2.10
2019-02-24T04:19:11.611Z,1.90
2019-02-24T04:21:40.865Z,1.47
2019-02-24T04:24:10.402Z,1.40
2019-02-24T04:26:39.646Z,1.73
2019-02-24T04:29:09.026Z,2.00
2019-02-24T04:31:38.458Z,1.87
2019-02-24T04:34:07.733Z,1.63
2019-02-24T04:36:37.048Z,2.13
2019-02-24T04:39:06.718Z,2.13
2019-02-24T04:41:36.048Z,1.70
2019-02-24T04:44:05.455Z,1.73
2019-02-24T04:46:34.735Z,1.93
2019-02-24T04:49:04.001Z,1.90
2019-02-24T04:51:33.402Z,2.33
2019-02-24T04:54:02.741Z,2.00
2019-02-24T04:56:32.118Z,2.93
2019-02-24T04:59:01.490Z,1.77
2019-02-24T05:01:30.838Z,2.43
2019-02-24T05:04:00.144Z,2.00
2019-02-24T05:06:29.435Z,2.17
2019-02-24T05:08:58.680Z,2.23
2019-02-24T05:11:27.968Z,2.10
2019-02-24T05:13:57.284Z,2.33
2019-02-24T05:16:26.621Z,1.97
2019-02-24T05:18:55.878Z,3.00
2019-02-24T05:21:25.154Z,2.60
2019-02-24T05:23:54.458Z,2.20
2019-02-24T05:26:23.939Z,2.57
2019-02-24T05:28:53.207Z,2.20
2019-02-24T05:31:22.483Z,2.20
2019-02-24T05:33:51.797Z,2.53
2019-02-24T05:36:21.123Z,2.33
2019-02-24T05:38:52.263Z,2.60
2019-02-24T05:41:21.699Z,2.07
2019-02-24T05:43:51.127Z,2.00
2019-02-24T05:46:20.474Z,1.97
2019-02-24T05:48:49.764Z,2.57
2019-02-24T05:51:19.061Z,3.33
2019-02-24T05:53:48.459Z,2.37
2019-02-24T05:56:17.786Z,2.03
2019-02-24T05:58:49.139Z,2.13
2019-02-24T06:01:19.952Z,2.20
2019-02-24T06:03:49.482Z,2.60
2019-02-24T06:06:18.759Z,1.93
2019-02-24T06:08:48.199Z,2.47
2019-02-24T06:11:17.505Z,2.73
2019-02-24T06:13:46.831Z,3.07
2019-02-24T06:16:16.109Z,3.10
2019-02-24T06:18:45.415Z,2.40
2019-02-24T06:21:14.682Z,3.20
2019-02-24T06:23:43.971Z,2.13
2019-02-24T06:26:13.266Z,2.43
2019-02-24T06:28:42.611Z,2.23
2019-02-24T06:31:12.231Z,3.00
2019-02-24T06:33:41.551Z,4.93
2019-02-24T06:36:11.066Z,5.40
2019-02-24T06:38:40.419Z,4.30
2019-02-24T06:41:09.715Z,3.90
2019-02-24T06:43:39.053Z,2.70
2019-02-24T06:46:08.532Z,3.33
2019-02-24T06:48:37.818Z,3.10
2019-02-24T06:51:09.340Z,2.67
2019-02-24T06:53:38.655Z,2.93
2019-02-24T06:56:07.927Z,3.63
2019-02-24T06:58:37.204Z,2.50
2019-02-24T07:01:06.656Z,2.43
2019-02-24T07:03:35.937Z,2.70
2019-02-24T07:06:05.213Z,2.77
2019-02-24T07:08:34.551Z,2.60
2019-02-24T07:11:03.914Z,2.50
2019-02-24T07:13:35.824Z,2.43
2019-02-24T07:16:05.286Z,2.60
2019-02-24T07:18:40.669Z,2.67
2019-02-24T07:21:10.418Z,3.10
2019-02-24T07:23:43.764Z,2.43
2019-02-24T07:26:18.624Z,3.20
2019-02-24T07:28:47.989Z,3.17
2019-02-24T07:31:22.185Z,2.80
2019-02-24T07:33:55.348Z,3.33
2019-02-24T07:36:24.607Z,2.80
2019-02-24T07:38:54.011Z,2.60
2019-02-24T07:41:23.321Z,2.70
2019-02-24T07:43:52.618Z,2.60
2019-02-24T07:46:21.986Z,2.97
2019-02-24T07:48:51.299Z,2.70
2019-02-24T07:51:20.624Z,2.47
2019-02-24T07:53:50.258Z,3.03
2019-02-24T07:56:19.619Z,2.37
2019-02-24T07:58:49.165Z,2.33
2019-02-24T08:01:18.584Z,2.97
2019-02-24T08:03:47.964Z,2.47
2019-02-24T08:06:17.322Z,2.50
2019-02-24T08:08:47.326Z,2.70
2019-02-24T08:11:16.600Z,2.43
2019-02-24T08:13:45.923Z,2.53
2019-02-24T08:16:15.262Z,3.03
2019-02-24T08:18:49.522Z,2.13
2019-02-24T08:21:16.105Z,2.30
2019-02-24T08:23:45.396Z,2.50
2019-02-24T08:26:14.692Z,1.97
2019-02-24T08:28:43.989Z,2.10
2019-02-24T08:31:14.183Z,2.07
2019-02-24T08:33:43.682Z,2.33
2019-02-24T08:36:13.093Z,2.30
2019-02-24T08:38:42.950Z,2.00
2019-02-24T08:41:12.350Z,1.97
2019-02-24T08:43:41.674Z,2.73
2019-02-24T08:46:11.582Z,2.27
2019-02-24T08:48:40.990Z,2.33
2019-02-24T08:51:14.045Z,2.10
2019-02-24T08:53:46.281Z,2.30
2019-02-24T08:56:15.295Z,2.00
2019-02-24T08:58:44.613Z,1.90
2019-02-24T09:01:13.870Z,2.30
2019-02-24T09:03:43.121Z,1.73
2019-02-24T09:06:12.336Z,2.23
2019-02-24T09:08:41.620Z,1.90
2019-02-24T09:11:11.042Z,2.10
2019-02-24T09:13:41.864Z,2.70
2019-02-24T09:16:11.799Z,2.13
2019-02-24T09:18:41.489Z,2.17
2019-02-24T09:21:13.656Z,2.17
2019-02-24T09:23:43.841Z,2.30
2019-02-24T09:26:13.483Z,2.00
2019-02-24T09:28:46.626Z,2.57
2019-02-24T09:31:16.469Z,2.60
2019-02-24T09:33:46.149Z,2.73
2019-02-24T09:36:15.676Z,2.43
2019-02-24T09:38:45.139Z,2.27
2019-02-24T09:41:14.539Z,1.93
2019-02-24T09:43:44.133Z,2.80
2019-02-24T09:46:13.673Z,2.20
2019-02-24T09:48:43.322Z,2.40
2019-02-24T09:51:12.805Z,2.13
2019-02-24T09:53:42.500Z,2.10
2019-02-24T09:56:11.952Z,1.77
2019-02-24T09:58:41.586Z,2.50
2019-02-24T10:01:16.151Z,2.37
2019-02-24T10:03:45.850Z,1.40
2019-02-24T10:06:15.314Z,2.20
2019-02-24T10:08:44.881Z,2.13
2019-02-24T10:11:14.571Z,2.33
2019-02-24T10:13:44.182Z,2.30
2019-02-24T10:16:18.140Z,2.00
2019-02-24T10:18:48.981Z,2.40
2019-02-24T10:21:19.048Z,2.13
2019-02-24T10:23:48.401Z,2.17
2019-02-24T10:26:17.802Z,2.23
2019-02-24T10:28:47.827Z,2.30
2019-02-24T10:31:19.777Z,1.77
2019-02-24T10:33:48.958Z,2.07
2019-02-24T10:36:18.591Z,2.20
2019-02-24T10:38:48.197Z,2.00
2019-02-24T10:41:18.000Z,2.07
2019-02-24T10:43:47.666Z,1.97
2019-02-24T10:46:17.060Z,2.37
2019-02-24T10:48:46.533Z,2.00
2019-02-24T10:51:15.958Z,1.63
2019-02-24T10:53:45.425Z,1.60
2019-02-24T10:56:14.836Z,2.03
2019-02-24T10:58:44.405Z,1.87
2019-02-24T11:01:13.941Z,1.63
2019-02-24T11:03:43.723Z,1.37
2019-02-24T11:06:13.634Z,2.00
2019-02-24T11:08:43.158Z,2.00
2019-02-24T11:11:12.833Z,1.80
2019-02-24T11:13:42.617Z,1.90
2019-02-24T11:16:12.874Z,2.20
2019-02-24T11:18:42.365Z,1.53
2019-02-24T11:21:12.105Z,1.47
2019-02-24T11:23:41.665Z,1.73
2019-02-24T11:26:12.015Z,1.40
2019-02-24T11:28:41.926Z,2.17
2019-02-24T11:31:12.022Z,1.97
2019-02-24T11:33:42.660Z,2.07
2019-02-24T11:36:12.342Z,1.83
2019-02-24T11:38:41.977Z,1.87
2019-02-24T11:41:11.741Z,1.90
2019-02-24T11:43:41.263Z,2.20
2019-02-24T11:46:13.604Z,2.13
2019-02-24T11:48:43.283Z,1.83
2019-02-24T11:51:13.178Z,2.00
2019-02-24T11:53:42.769Z,2.03
2019-02-24T11:56:12.157Z,1.80
2019-02-24T11:58:41.870Z,1.83
2019-02-24T12:01:11.456Z,1.77
2019-02-24T12:03:40.822Z,1.63
2019-02-24T12:06:10.284Z,1.80
2019-02-24T12:08:42.641Z,1.50
2019-02-24T12:11:12.265Z,1.63
2019-02-24T12:13:42.170Z,2.13
2019-02-24T12:16:11.752Z,2.47
2019-02-24T12:18:41.262Z,1.67
2019-02-24T12:21:10.777Z,2.30
2019-02-24T12:23:40.360Z,2.90
2019-02-24T12:26:10.142Z,2.07
2019-02-24T12:28:39.344Z,2.40
2019-02-24T12:31:08.722Z,2.17
2019-02-24T12:33:38.207Z,2.10
2019-02-24T12:36:07.609Z,2.10
2019-02-24T12:38:37.270Z,2.60
2019-02-24T12:41:06.743Z,2.20
2019-02-24T12:43:36.504Z,2.50
2019-02-24T12:46:08.487Z,2.27
2019-02-24T12:48:40.483Z,2.30
2019-02-24T12:51:13.562Z,2.33
2019-02-24T12:53:42.922Z,2.17
2019-02-24T12:56:12.351Z,2.80
2019-02-24T12:58:41.858Z,2.40
2019-02-24T13:01:11.296Z,2.20
2019-02-24T13:03:40.849Z,2.07
2019-02-24T13:06:13.925Z,1.93
2019-02-24T13:08:43.145Z,1.90
2019-02-24T13:11:12.703Z,1.70
2019-02-24T13:14:01.168Z,2.50
2019-02-24T13:16:30.446Z,2.40
2019-02-24T13:18:59.755Z,1.97
2019-02-24T13:21:29.072Z,2.37
2019-02-24T13:23:58.643Z,2.23
2019-02-24T13:26:28.526Z,2.03
2019-02-24T13:28:57.829Z,2.67
2019-02-24T13:31:30.051Z,1.70
2019-02-24T13:33:59.325Z,2.00
2019-02-24T13:36:28.610Z,2.00
2019-02-24T13:38:58.382Z,2.80
2019-02-24T13:41:27.809Z,2.10
2019-02-24T13:43:57.143Z,1.80
2019-02-24T13:46:26.505Z,1.67
2019-02-24T13:48:55.864Z,1.70
2019-02-24T13:51:25.153Z,1.73
2019-02-24T13:53:54.465Z,1.73
2019-02-24T13:56:23.832Z,2.50
2019-02-24T13:58:53.120Z,2.53
2019-02-24T14:01:22.484Z,2.27
2019-02-24T14:03:51.923Z,2.20
2019-02-24T14:06:21.213Z,2.13
2019-02-24T14:08:50.414Z,2.27
2019-02-24T14:11:19.672Z,2.33
2019-02-24T14:13:49.092Z,2.23
2019-02-24T14:16:18.470Z,2.00
2019-02-24T14:18:47.716Z,1.93
2019-02-24T14:21:16.944Z,2.03
2019-02-24T14:23:46.178Z,2.23
2019-02-24T14:26:15.551Z,3.20
2019-02-24T14:28:44.748Z,1.90
2019-02-24T14:31:14.400Z,2.23
2019-02-24T14:33:47.333Z,2.30
2019-02-24T14:36:17.599Z,2.57
2019-02-24T14:38:47.085Z,2.10
2019-02-24T14:41:16.599Z,2.50
2019-02-24T14:43:45.979Z,2.40
2019-02-24T14:46:15.253Z,2.23
2019-02-24T14:48:44.836Z,2.00
2019-02-24T14:51:14.158Z,1.87
2019-02-24T14:53:43.320Z,2.10
2019-02-24T14:56:12.735Z,2.43
2019-02-24T14:58:42.025Z,2.60
2019-02-24T15:01:11.412Z,2.20
2019-02-24T15:03:40.781Z,2.20
2019-02-24T15:06:10.051Z,2.23
2019-02-24T15:08:39.321Z,3.10
2019-02-24T15:11:08.643Z,2.93
2019-02-24T15:13:37.898Z,2.63
2019-02-24T15:16:07.224Z,2.73
2019-02-24T15:18:36.679Z,2.33
2019-02-24T15:21:05.998Z,2.30
2019-02-24T15:23:35.280Z,2.40
2019-02-24T15:26:04.522Z,3.30
2019-02-24T15:28:33.859Z,2.30
2019-02-24T15:31:03.133Z,2.97
2019-02-24T15:33:32.426Z,2.70
2019-02-24T15:36:01.822Z,2.30
2019-02-24T15:38:31.104Z,2.63
2019-02-24T15:41:00.339Z,3.00
2019-02-24T15:43:29.681Z,2.33
2019-02-24T15:45:59.033Z,2.00
2019-02-24T15:48:28.288Z,2.60
2019-02-24T15:50:57.546Z,2.70
2019-02-24T15:53:26.885Z,2.47
2019-02-24T15:55:56.171Z,2.50
2019-02-24T15:58:25.646Z,2.70
2019-02-24T16:00:54.966Z,3.50
2019-02-24T16:03:24.282Z,3.20
2019-02-24T16:05:53.668Z,2.33
2019-02-24T16:08:22.978Z,2.97
2019-02-24T16:10:52.233Z,2.00
2019-02-24T16:13:21.530Z,2.20
2019-02-24T16:15:50.823Z,2.97
2019-02-24T16:18:20.075Z,2.70
2019-02-24T16:20:49.330Z,2.27
2019-02-24T16:23:18.669Z,2.30
2019-02-24T16:25:48.104Z,2.37
2019-02-24T16:28:37.295Z,1.93
2019-02-24T16:31:07.037Z,1.97
2019-02-24T16:33:41.076Z,2.37
2019-02-24T16:36:10.452Z,2.10
2019-02-24T16:38:55.480Z,1.80
2019-02-24T16:41:30.838Z,2.13
2019-02-24T16:44:02.139Z,2.17
2019-02-24T16:46:31.681Z,2.37
2019-02-24T16:49:00.997Z,2.17
2019-02-24T16:51:30.229Z,2.70
2019-02-24T16:53:59.494Z,2.80
2019-02-24T16:56:28.795Z,2.00
2019-02-24T16:58:58.106Z,2.63
2019-02-24T17:01:28.377Z,2.50
2019-02-24T17:03:57.709Z,2.70
2019-02-24T17:06:27.016Z,2.97
2019-02-24T17:09:01.411Z,2.77
2019-02-24T17:11:27.283Z,4.10
2019-02-24T17:13:57.589Z,7.17
2019-02-24T17:16:26.884Z,3.30
2019-02-24T17:18:56.245Z,3.23
2019-02-24T17:21:25.672Z,2.70
2019-02-24T17:23:54.982Z,3.70
2019-02-24T17:26:24.312Z,4.00
2019-02-24T17:28:53.613Z,3.93
2019-02-24T17:31:28.339Z,3.03
2019-02-24T17:33:54.003Z,3.23
2019-02-24T17:36:23.293Z,3.77
2019-02-24T17:38:52.628Z,3.07
2019-02-24T17:41:21.922Z,3.60
2019-02-24T17:43:51.250Z,3.60
2019-02-24T17:46:20.586Z,3.37
2019-02-24T17:48:49.851Z,4.80
2019-02-24T17:51:21.489Z,4.20
2019-02-24T17:53:50.140Z,4.17
2019-02-24T17:56:19.474Z,4.10
2019-02-24T17:58:48.805Z,3.37
2019-02-24T18:01:18.178Z,3.93
2019-02-24T18:03:47.517Z,3.77
2019-02-24T18:06:16.837Z,3.97
2019-02-24T18:08:46.113Z,4.20
2019-02-24T18:11:15.506Z,3.60
2019-02-24T18:13:44.812Z,3.97
2019-02-24T18:16:14.078Z,3.90
2019-02-24T18:18:43.788Z,3.30
2019-02-24T18:21:13.106Z,3.17
2019-02-24T18:23:42.498Z,3.13
2019-02-24T18:26:11.933Z,2.77
2019-02-24T18:28:41.376Z,2.97
2019-02-24T18:31:10.647Z,3.13
2019-02-24T18:33:48.064Z,2.80
2019-02-24T18:36:11.476Z,3.20
2019-02-24T18:38:41.692Z,2.97
2019-02-24T18:41:11.001Z,2.63
2019-02-24T18:43:40.467Z,3.13
2019-02-24T18:46:09.877Z,2.17
2019-02-24T18:48:39.179Z,2.13
2019-02-24T18:51:08.913Z,2.93
2019-02-24T18:53:38.181Z,2.40
2019-02-24T18:56:07.598Z,2.63
2019-02-24T18:58:37.011Z,2.40
2019-02-24T19:01:06.367Z,2.20
2019-02-24T19:03:35.735Z,2.30
2019-02-24T19:06:05.083Z,2.80
2019-02-24T19:08:34.855Z,2.60
2019-02-24T19:11:04.218Z,2.63
2019-02-24T19:13:33.478Z,2.37
2019-02-24T19:16:02.780Z,2.73
2019-02-24T19:18:32.432Z,2.43
2019-02-24T19:21:02.212Z,3.20
2019-02-24T19:23:31.957Z,2.20
2019-02-24T19:26:01.664Z,2.23
2019-02-24T19:28:47.381Z,2.60
2019-02-24T19:31:17.502Z,2.70
2019-02-24T19:33:47.145Z,2.37
2019-02-24T19:36:16.663Z,3.03
2019-02-24T19:38:45.922Z,2.67
2019-02-24T19:41:15.368Z,2.73
2019-02-24T19:43:47.055Z,3.60
2019-02-24T19:46:17.342Z,2.73
2019-02-24T19:48:46.813Z,3.33
2019-02-24T19:51:35.210Z,2.93
2019-02-24T19:54:04.637Z,2.90
2019-02-24T19:56:34.142Z,3.07
2019-02-24T19:59:03.567Z,2.50
2019-02-24T20:01:33.088Z,2.53
2019-02-24T20:04:02.488Z,2.33
2019-02-24T20:06:31.851Z,2.13
2019-02-24T20:09:01.217Z,2.13
2019-02-24T20:11:30.862Z,1.97
2019-02-24T20:14:01.761Z,2.13
2019-02-24T20:16:32.512Z,1.77
2019-02-24T20:19:02.008Z,1.70
2019-02-24T20:21:31.368Z,1.80
2019-02-24T20:24:00.807Z,1.57
2019-02-24T20:26:30.360Z,1.83
2019-02-24T20:29:00.467Z,1.53
2019-02-24T20:31:30.108Z,1.57
2019-02-24T20:33:59.404Z,1.50
2019-02-24T20:36:28.791Z,0.97
2019-02-24T20:38:58.164Z,1.43
2019-02-24T20:41:27.485Z,1.53
2019-02-24T20:43:56.784Z,1.70
2019-02-24T20:46:26.020Z,1.90
2019-02-24T20:48:55.331Z,1.43
2019-02-24T20:51:24.636Z,1.77
2019-02-24T20:53:53.904Z,1.50
2019-02-24T20:56:23.151Z,1.67
2019-02-24T20:58:52.447Z,1.47
2019-02-24T21:01:21.710Z,1.43
2019-02-24T21:03:51.049Z,1.50
2019-02-24T21:06:20.538Z,1.40
2019-02-24T21:08:49.882Z,1.40
2019-02-24T21:11:19.265Z,1.60
2019-02-24T21:13:48.645Z,1.57
2019-02-24T21:16:18.014Z,1.10
2019-02-24T21:18:47.379Z,1.50
2019-02-24T21:21:16.828Z,1.30
2019-02-24T21:23:46.180Z,1.60
2019-02-24T21:26:15.486Z,1.13
2019-02-24T21:28:44.863Z,1.60
2019-02-24T21:31:14.285Z,1.30
2019-02-24T21:33:43.735Z,1.30
2019-02-24T21:36:13.095Z,1.70
2019-02-24T21:38:42.562Z,2.27
2019-02-24T21:41:11.975Z,1.47
2019-02-24T21:43:41.335Z,1.73
2019-02-24T21:46:10.589Z,1.40
2019-02-24T21:48:39.919Z,2.10
2019-02-24T21:51:09.149Z,1.73
2019-02-24T21:53:38.372Z,2.30
2019-02-24T21:56:07.621Z,2.20
2019-02-24T21:58:36.878Z,2.33
2019-02-24T22:01:06.752Z,2.20
2019-02-24T22:03:36.549Z,2.80
2019-02-24T22:06:05.716Z,2.80
2019-02-24T22:08:35.054Z,3.23
2019-02-24T22:11:04.357Z,2.50
2019-02-24T22:13:33.608Z,2.30
2019-02-24T22:16:02.942Z,2.33
2019-02-24T22:18:32.229Z,2.87
2019-02-24T22:21:01.511Z,2.07
2019-02-24T22:23:30.750Z,2.03
2019-02-24T22:25:59.994Z,2.43
2019-02-24T22:28:29.224Z,1.80
2019-02-24T22:30:58.503Z,2.07
2019-02-24T22:33:27.768Z,2.00
2019-02-24T22:35:57.080Z,2.20
2019-02-24T22:38:26.334Z,2.57
2019-02-24T22:40:55.592Z,2.10
2019-02-24T22:43:24.746Z,3.00
2019-02-24T22:45:53.974Z,2.50
2019-02-24T22:48:23.267Z,1.97
2019-02-24T22:50:52.432Z,2.63
2019-02-24T22:53:21.713Z,2.33
2019-02-24T22:55:50.970Z,2.57
2019-02-24T22:58:20.247Z,2.80
2019-02-24T23:01:25.525Z,2.47
2019-02-24T23:04:04.744Z,2.00
2019-02-24T23:06:34.014Z,3.10
2019-02-24T23:09:03.950Z,2.40
2019-02-24T23:11:33.215Z,2.50
2019-02-24T23:14:02.433Z,3.10
2019-02-24T23:16:31.623Z,2.87
2019-02-24T23:19:00.918Z,2.77
2019-02-24T23:21:30.167Z,2.10
2019-02-24T23:23:59.397Z,2.70
2019-02-24T23:26:28.656Z,2.63
2019-02-24T23:28:57.824Z,1.87
2019-02-24T23:31:27.197Z,1.93
2019-02-24T23:33:56.420Z,2.97
2019-02-24T23:36:25.633Z,2.60
2019-02-24T23:38:54.777Z,2.50
2019-02-24T23:41:23.988Z,2.10
2019-02-24T23:43:53.192Z,1.83
2019-02-24T23:46:22.424Z,2.20
2019-02-24T23:48:51.685Z,2.37
2019-02-24T23:51:20.893Z,2.10
2019-02-24T23:53:50.083Z,1.93
2019-02-24T23:56:19.322Z,2.30
2019-02-24T23:58:48.576Z,2.50
